KANB

Anniston Regional Airport

Anniston, Alabama, USA
KANB 132340Z 1400/1424 08007KT P6SM FEW025 OVC070 FM140500 09009KT P6SM -RA BKN025 OVC040 FM140700 08008KT P6SM -RA OVC015 FM141100 08009KT 4SM -RA BR OVC005 FM142300 16006KT P6SM SCT008 BKN025
Issued Valid From Valid To
Dec-13 @ 23:40 UTC
(4 hours ago)
Dec-14 @ 00:00 UTC
(4 hours ago)
Dec-15 @ 00:00 UTC
(in 20 hours)
Dec-14 @ 00:00 to Dec-14 @ 05:00
KANB 132340Z 1400/1424 08007KT P6SM FEW025 OVC070
Wind Visibility Clouds
80° at 7 knots Greater than 6 miles
  • Few at 2,500' AGL
  • Overcast at 7,000' AGL
From Dec-14 @ 05:00 to Dec-14 @ 07:00
FM140500 09009KT P6SM -RA BKN025 OVC040
Wind Visibility Clouds Conditions
90° at 9 knots Greater than 6 miles
  • Broken at 2,500' AGL
  • Overcast at 4,000' AGL
  • Light Rain
From Dec-14 @ 07:00 to Dec-14 @ 11:00
FM140700 08008KT P6SM -RA OVC015
Wind Visibility Clouds Conditions
80° at 8 knots Greater than 6 miles
  • Overcast at 1,500' AGL
  • Light Rain
From Dec-14 @ 11:00 to Dec-14 @ 23:00
FM141100 08009KT 4SM -RA BR OVC005
Wind Visibility Clouds Conditions
80° at 9 knots 4 miles
  • Overcast at 500' AGL
  • Light Rain
  • Mist
From Dec-14 @ 23:00 to Dec-15 @ 00:00
FM142300 16006KT P6SM SCT008 BKN025
Wind Visibility Clouds
160° at 6 knots Greater than 6 miles
  • Scattered at 800' AGL
  • Broken at 2,500' AGL
KANB 132340Z 1400/1424 08007KT P6SM FEW025 OVC070 FM140500 09009KT P6SM -RA BKN025 OVC040 FM140700 08008KT P6SM -RA OVC015 FM141100 08009KT 4SM -RA BR OVC005 FM142300 16006KT P6SM SCT008 BKN025
Issued Dec-13 @ 23:40 UTC
(4 hours ago)
Valid From Dec-14 @ 00:00 UTC
(4 hours ago)
Valid To Dec-15 @ 00:00 UTC
(in 20 hours)
Dec-14 @ 00:00 - Dec-14 @ 05:00
Wind Visibility
80° at 7 knots Greater than 6 miles
Clouds
  • Few at 2,500' AGL
  • Overcast at 7,000' AGL
From Dec-14 @ 05:00 - Dec-14 @ 07:00
Wind Visibility
90° at 9 knots Greater than 6 miles
Clouds
  • Broken at 2,500' AGL
  • Overcast at 4,000' AGL
Conditions
  • Light Rain
From Dec-14 @ 07:00 - Dec-14 @ 11:00
Wind Visibility
80° at 8 knots Greater than 6 miles
Clouds
  • Overcast at 1,500' AGL
Conditions
  • Light Rain
From Dec-14 @ 11:00 - Dec-14 @ 23:00
Wind Visibility
80° at 9 knots 4 miles
Clouds
  • Overcast at 500' AGL
Conditions
  • Light Rain
  • Mist
From Dec-14 @ 23:00 - Dec-15 @ 00:00
Wind Visibility
160° at 6 knots Greater than 6 miles
Clouds
  • Scattered at 800' AGL
  • Broken at 2,500' AGL